Doris Moran — WRU2125 — position and weather

sailwx.info

Track history (hours):
 
Tides and Currents Weather Stations Pressure Air Temp Water Temp Dewpoint Dewpoint Depression Visibility Wind Speed Wind Dir Waves Ship Positions

Doris Moran

More information available from US FCC via Universal Licensing System and Coast Guard Vessel Documentation Center.

Last reported at 2014-Sep-03 04:33 UTC. Time now 2014-Sep-03 05:04 UTC.
Position N 39°36' W 074°04'.

Length 36 m; draft 15 m.

Type: Other ship. MMSI: 366939790.

Date/timePositionNaut miles runAvg speedWind from/ knotsBaromVisibWave heightAir tempDewpointWater temp
2014-Sep-03 04:33N 39°36' W 074°04'10 9.9
2014-Sep-03 03:33N 39°45' W 073°59'10 9.9
2014-Sep-03 02:32N 39°55' W 073°57'10 9.9
2014-Sep-03 01:31N 40°05' W 073°55'12 9.8
2014-Sep-03 00:20N 40°16' W 073°55'810.0
2014-Sep-02 23:32N 40°24' W 073°54'9 9.1
2014-Sep-02 22:33N 40°32' W 074°01'6 6.2
2014-Sep-02 21:33N 40°37' W 074°03'9 8.8
2014-Sep-02 20:33N 40°45' W 073°58'3010.0
2014-Sep-02 17:33N 41°01' W 073°24'1211.5
2014-Sep-02 16:31N 41°04' W 073°09'1111.2
2014-Sep-02 15:33N 41°10' W 072°57'7 7.2
2014-Sep-02 14:33N 41°17' W 072°55'0 0.3
2014-Sep-02 13:28N 41°18' W 072°54'0 0.0
2014-Sep-02 12:33N 41°18' W 072°54'0 0.0
2014-Sep-02 11:33N 41°18' W 072°54'0 0.0
2014-Sep-02 10:33N 41°18' W 072°54'0 0.0
2014-Sep-02 09:33N 41°18' W 072°54'0 0.0
2014-Sep-02 08:33N 41°18' W 072°54'0 0.0
2014-Sep-02 07:33N 41°18' W 072°54'0 0.0
2014-Sep-02 06:24N 41°18' W 072°54'0 0.0
2014-Sep-02 05:08N 41°18' W 072°54'0 0.0
2014-Sep-02 03:19N 41°18' W 072°54'0 0.0
2014-Sep-02 02:33N 41°18' W 072°54'0 0.0
2014-Sep-02 01:33N 41°18' W 072°54'0 0.0
2014-Sep-02 00:31N 41°18' W 072°54'0 0.0
2014-Sep-01 23:33N 41°18' W 072°54'0 0.0
2014-Sep-01 22:29N 41°18' W 072°54'0 0.0
2014-Sep-01 21:20N 41°18' W 072°54'0 0.0
2014-Sep-01 19:26N 41°18' W 072°54'5 6.1
2014-Sep-01 18:33N 41°12' W 072°54'9 9.0
2014-Sep-01 17:33N 41°11' W 072°42'1110.5
2014-Sep-01 16:33N 41°11' W 072°28'1110.8
2014-Sep-01 15:33N 41°13' W 072°14'9 9.3
2014-Sep-01 14:33N 41°14' W 072°02'1010.0
2014-Sep-01 13:33N 41°16' W 071°49'10 9.9
2014-Sep-01 12:33N 41°18' W 071°36'9 9.2
2014-Sep-01 11:33N 41°18' W 071°24'9 8.9
2014-Sep-01 10:33N 41°21' W 071°13'9 8.9
2014-Sep-01 09:33N 41°25' W 071°02'1010.2
2014-Sep-01 08:33N 41°31' W 070°50'50 1.4
2014-Aug-30 21:25N 42°20' W 071°00'4 3.8
2014-Aug-30 20:23N 42°22' W 070°55'23 8.0
2014-Aug-30 17:28N 42°06' W 070°32'9 9.2
2014-Aug-30 16:32N 41°58' W 070°28'5 5.1
2014-Aug-30 15:33N 41°53' W 070°28'17 8.4
2014-Aug-30 13:32N 41°40' W 070°41'8 7.1
2014-Aug-30 12:22N 41°32' W 070°47'4 5.0
2014-Aug-30 11:33N 41°30' W 070°51'8 7.7
2014-Aug-30 10:33N 41°27' W 071°00'9 8.8
2014-Aug-30 09:33N 41°22' W 071°10'9 8.9
2014-Aug-30 08:33N 41°18' W 071°21'9 8.9
2014-Aug-30 07:33N 41°18' W 071°32'9 8.9
2014-Aug-30 06:33N 41°16' W 071°44'8 8.5
2014-Aug-30 05:33N 41°15' W 071°55'8 7.6
2014-Aug-30 04:33N 41°14' W 072°05'8 7.8
2014-Aug-30 03:33N 41°11' W 072°15'8 8.1
2014-Aug-30 02:33N 41°09' W 072°25'5 5.4
2014-Aug-30 01:33N 41°07' W 072°32'4 4.1
2014-Aug-30 00:33N 41°06' W 072°37'8 8.3
2014-Aug-29 23:33N 41°02' W 072°47'5 5.0
2014-Aug-29 22:33N 41°02' W 072°54'21 9.5
2014-Aug-29 20:23N 41°01' W 073°21'910.0
2014-Aug-29 19:28N 40°57' W 073°32'9 9.4
2014-Aug-29 18:33N 40°53' W 073°43'8 7.9
2014-Aug-29 17:29N 40°48' W 073°51'6 6.2
2014-Aug-29 16:33N 40°45' W 073°58'4 4.3
2014-Aug-29 15:33N 40°42' W 074°01'7 0.2
2014-Aug-27 17:05N 40°48' W 073°58'611.6
2014-Aug-27 16:33N 40°43' W 074°01'3 3.0
2014-Aug-27 15:32N 40°40' W 074°03'1 1.2
2014-Aug-27 14:34N 40°40' W 074°01'1 0.7
2014-Aug-27 13:33N 40°40' W 074°00'0 0.0
2014-Aug-27 12:33N 40°40' W 074°00'6 5.9
2014-Aug-27 11:33N 40°38' W 074°08'0 0.0
2014-Aug-27 10:33N 40°38' W 074°08'0 0.0
2014-Aug-27 09:33N 40°38' W 074°08'1 1.2
2014-Aug-27 08:33N 40°39' W 074°09'1 0.9
2014-Aug-27 07:08N 40°38' W 074°08'0 0.0
2014-Aug-27 06:32N 40°38' W 074°08'0 0.0
2014-Aug-27 05:31N 40°38' W 074°08'0 0.0
2014-Aug-27 04:31N 40°38' W 074°08'3 3.2
2014-Aug-27 03:33N 40°39' W 074°04'3 2.8
2014-Aug-27 02:31N 40°40' W 074°00'0 0.0
2014-Aug-27 01:31N 40°40' W 074°00'0 0.0
2014-Aug-27 00:33N 40°40' W 074°00'0 0.0
2014-Aug-26 23:32N 40°40' W 074°00'0 0.0
2014-Aug-26 22:31N 40°40' W 074°00'0 0.0
2014-Aug-26 21:31N 40°40' W 074°00'0 0.0
2014-Aug-26 20:31N 40°40' W 074°00'0 0.0
2014-Aug-26 19:34N 40°40' W 074°00'0 0.0
2014-Aug-26 18:33N 40°40' W 074°00'0 0.0
2014-Aug-26 17:34N 40°40' W 074°00'0 0.0
2014-Aug-26 16:34N 40°40' W 074°00'0 0.0
2014-Aug-26 15:34N 40°40' W 074°00'0 0.0
2014-Aug-26 14:34N 40°40' W 074°00'0 0.1
2014-Aug-26 13:34N 40°40' W 074°00'2 2.1
2014-Aug-26 12:34N 40°39' W 074°03'0 0.0
2014-Aug-26 11:34N 40°39' W 074°03'0 0.2
2014-Aug-26 10:34N 40°39' W 074°03'0 0.0
2014-Aug-26 09:34N 40°39' W 074°03'0 0.0
2014-Aug-26 08:34N 40°39' W 074°03'0 0.0
2014-Aug-26 07:34N 40°39' W 074°03'0 0.0
2014-Aug-26 06:34N 40°39' W 074°03'0 0.0
2014-Aug-26 05:34N 40°39' W 074°03'0 0.0
2014-Aug-26 04:34N 40°39' W 074°03'3 3.4
2014-Aug-26 03:33N 40°42' W 074°00'8 8.0
2014-Aug-26 02:32N 40°48' W 073°53'25 8.3
2014-Aug-25 23:34N 41°00' W 073°25'11 9.1
2014-Aug-25 22:24N 41°02' W 073°11'10 8.2
2014-Aug-25 21:13N 41°04' W 072°59'6 9.3
2014-Aug-25 20:33N 41°06' W 072°51'9 9.1
2014-Aug-25 19:33N 41°08' W 072°39'9 8.6
2014-Aug-25 18:33N 41°10' W 072°28'8 8.3
2014-Aug-25 17:33N 41°13' W 072°18'9 8.9
2014-Aug-25 16:33N 41°14' W 072°06'7 7.2
2014-Aug-25 15:33N 41°15' W 071°56'9 8.8
2014-Aug-25 14:33N 41°17' W 071°45'9 9.1
2014-Aug-25 13:33N 41°18' W 071°33'9 8.8
2014-Aug-25 12:33N 41°18' W 071°21'9 9.2
2014-Aug-25 11:33N 41°22' W 071°10'9 8.8
2014-Aug-25 10:33N 41°27' W 071°00'9 9.0
2014-Aug-25 09:33N 41°31' W 070°50'40 6.3
2014-Aug-25 03:10N 42°09' W 070°32'5 7.5
2014-Aug-25 02:31N 42°13' W 070°36'8 7.7
2014-Aug-25 01:33N 42°19' W 070°43'  
Track history (hours):
 
Tides and Currents Weather Stations Pressure Air Temp Water Temp Dewpoint Dewpoint Depression Visibility Wind Speed Wind Dir Waves Ship Positions

Doris Moran

More information available from US FCC via Universal Licensing System and Coast Guard Vessel Documentation Center.

Last reported at 2014-Sep-03 04:33 UTC. Time now 2014-Sep-03 05:04 UTC.
Position N 39°36' W 074°04'.

Length 36 m; draft 15 m.

Type: Other ship. MMSI: 366939790.

Date/timePositionNaut miles runAvg speedWind from/ knotsBaromVisibWave heightAir tempDewpointWater temp
2014-Sep-03 04:33N 39°36' W 074°04'10 9.9
2014-Sep-03 03:33N 39°45' W 073°59'10 9.9
2014-Sep-03 02:32N 39°55' W 073°57'10 9.9
2014-Sep-03 01:31N 40°05' W 073°55'12 9.8
2014-Sep-03 00:20N 40°16' W 073°55'810.0
2014-Sep-02 23:32N 40°24' W 073°54'9 9.1
2014-Sep-02 22:33N 40°32' W 074°01'6 6.2
2014-Sep-02 21:33N 40°37' W 074°03'9 8.8
2014-Sep-02 20:33N 40°45' W 073°58'3010.0
2014-Sep-02 17:33N 41°01' W 073°24'1211.5
2014-Sep-02 16:31N 41°04' W 073°09'1111.2
2014-Sep-02 15:33N 41°10' W 072°57'7 7.2
2014-Sep-02 14:33N 41°17' W 072°55'0 0.3
2014-Sep-02 13:28N 41°18' W 072°54'0 0.0
2014-Sep-02 12:33N 41°18' W 072°54'0 0.0
2014-Sep-02 11:33N 41°18' W 072°54'0 0.0
2014-Sep-02 10:33N 41°18' W 072°54'0 0.0
2014-Sep-02 09:33N 41°18' W 072°54'0 0.0
2014-Sep-02 08:33N 41°18' W 072°54'0 0.0
2014-Sep-02 07:33N 41°18' W 072°54'0 0.0
2014-Sep-02 06:24N 41°18' W 072°54'0 0.0
2014-Sep-02 05:08N 41°18' W 072°54'0 0.0
2014-Sep-02 03:19N 41°18' W 072°54'0 0.0
2014-Sep-02 02:33N 41°18' W 072°54'0 0.0
2014-Sep-02 01:33N 41°18' W 072°54'0 0.0
2014-Sep-02 00:31N 41°18' W 072°54'0 0.0
2014-Sep-01 23:33N 41°18' W 072°54'0 0.0
2014-Sep-01 22:29N 41°18' W 072°54'0 0.0
2014-Sep-01 21:20N 41°18' W 072°54'0 0.0
2014-Sep-01 19:26N 41°18' W 072°54'5 6.1
2014-Sep-01 18:33N 41°12' W 072°54'9 9.0
2014-Sep-01 17:33N 41°11' W 072°42'1110.5
2014-Sep-01 16:33N 41°11' W 072°28'1110.8
2014-Sep-01 15:33N 41°13' W 072°14'9 9.3
2014-Sep-01 14:33N 41°14' W 072°02'1010.0
2014-Sep-01 13:33N 41°16' W 071°49'10 9.9
2014-Sep-01 12:33N 41°18' W 071°36'9 9.2
2014-Sep-01 11:33N 41°18' W 071°24'9 8.9
2014-Sep-01 10:33N 41°21' W 071°13'9 8.9
2014-Sep-01 09:33N 41°25' W 071°02'1010.2
2014-Sep-01 08:33N 41°31' W 070°50'50 1.4
2014-Aug-30 21:25N 42°20' W 071°00'4 3.8
2014-Aug-30 20:23N 42°22' W 070°55'23 8.0
2014-Aug-30 17:28N 42°06' W 070°32'9 9.2
2014-Aug-30 16:32N 41°58' W 070°28'5 5.1
2014-Aug-30 15:33N 41°53' W 070°28'17 8.4
2014-Aug-30 13:32N 41°40' W 070°41'8 7.1
2014-Aug-30 12:22N 41°32' W 070°47'4 5.0
2014-Aug-30 11:33N 41°30' W 070°51'8 7.7
2014-Aug-30 10:33N 41°27' W 071°00'9 8.8
2014-Aug-30 09:33N 41°22' W 071°10'9 8.9
2014-Aug-30 08:33N 41°18' W 071°21'9 8.9
2014-Aug-30 07:33N 41°18' W 071°32'9 8.9
2014-Aug-30 06:33N 41°16' W 071°44'8 8.5
2014-Aug-30 05:33N 41°15' W 071°55'8 7.6
2014-Aug-30 04:33N 41°14' W 072°05'8 7.8
2014-Aug-30 03:33N 41°11' W 072°15'8 8.1
2014-Aug-30 02:33N 41°09' W 072°25'5 5.4
2014-Aug-30 01:33N 41°07' W 072°32'4 4.1
2014-Aug-30 00:33N 41°06' W 072°37'8 8.3
2014-Aug-29 23:33N 41°02' W 072°47'5 5.0
2014-Aug-29 22:33N 41°02' W 072°54'21 9.5
2014-Aug-29 20:23N 41°01' W 073°21'910.0
2014-Aug-29 19:28N 40°57' W 073°32'9 9.4
2014-Aug-29 18:33N 40°53' W 073°43'8 7.9
2014-Aug-29 17:29N 40°48' W 073°51'6 6.2
2014-Aug-29 16:33N 40°45' W 073°58'4 4.3
2014-Aug-29 15:33N 40°42' W 074°01'7 0.2
2014-Aug-27 17:05N 40°48' W 073°58'611.6
2014-Aug-27 16:33N 40°43' W 074°01'3 3.0
2014-Aug-27 15:32N 40°40' W 074°03'1 1.2
2014-Aug-27 14:34N 40°40' W 074°01'1 0.7
2014-Aug-27 13:33N 40°40' W 074°00'0 0.0
2014-Aug-27 12:33N 40°40' W 074°00'6 5.9
2014-Aug-27 11:33N 40°38' W 074°08'0 0.0
2014-Aug-27 10:33N 40°38' W 074°08'0 0.0
2014-Aug-27 09:33N 40°38' W 074°08'1 1.2
2014-Aug-27 08:33N 40°39' W 074°09'1 0.9
2014-Aug-27 07:08N 40°38' W 074°08'0 0.0
2014-Aug-27 06:32N 40°38' W 074°08'0 0.0
2014-Aug-27 05:31N 40°38' W 074°08'0 0.0
2014-Aug-27 04:31N 40°38' W 074°08'3 3.2
2014-Aug-27 03:33N 40°39' W 074°04'3 2.8
2014-Aug-27 02:31N 40°40' W 074°00'0 0.0
2014-Aug-27 01:31N 40°40' W 074°00'0 0.0
2014-Aug-27 00:33N 40°40' W 074°00'0 0.0
2014-Aug-26 23:32N 40°40' W 074°00'0 0.0
2014-Aug-26 22:31N 40°40' W 074°00'0 0.0
2014-Aug-26 21:31N 40°40' W 074°00'0 0.0
2014-Aug-26 20:31N 40°40' W 074°00'0 0.0
2014-Aug-26 19:34N 40°40' W 074°00'0 0.0
2014-Aug-26 18:33N 40°40' W 074°00'0 0.0
2014-Aug-26 17:34N 40°40' W 074°00'0 0.0
2014-Aug-26 16:34N 40°40' W 074°00'0 0.0
2014-Aug-26 15:34N 40°40' W 074°00'0 0.0
2014-Aug-26 14:34N 40°40' W 074°00'0 0.1
2014-Aug-26 13:34N 40°40' W 074°00'2 2.1
2014-Aug-26 12:34N 40°39' W 074°03'0 0.0
2014-Aug-26 11:34N 40°39' W 074°03'0 0.2
2014-Aug-26 10:34N 40°39' W 074°03'0 0.0
2014-Aug-26 09:34N 40°39' W 074°03'0 0.0
2014-Aug-26 08:34N 40°39' W 074°03'0 0.0
2014-Aug-26 07:34N 40°39' W 074°03'0 0.0
2014-Aug-26 06:34N 40°39' W 074°03'0 0.0
2014-Aug-26 05:34N 40°39' W 074°03'0 0.0
2014-Aug-26 04:34N 40°39' W 074°03'3 3.4
2014-Aug-26 03:33N 40°42' W 074°00'8 8.0
2014-Aug-26 02:32N 40°48' W 073°53'25 8.3
2014-Aug-25 23:34N 41°00' W 073°25'11 9.1
2014-Aug-25 22:24N 41°02' W 073°11'10 8.2
2014-Aug-25 21:13N 41°04' W 072°59'6 9.3
2014-Aug-25 20:33N 41°06' W 072°51'9 9.1
2014-Aug-25 19:33N 41°08' W 072°39'9 8.6
2014-Aug-25 18:33N 41°10' W 072°28'8 8.3
2014-Aug-25 17:33N 41°13' W 072°18'9 8.9
2014-Aug-25 16:33N 41°14' W 072°06'7 7.2
2014-Aug-25 15:33N 41°15' W 071°56'9 8.8
2014-Aug-25 14:33N 41°17' W 071°45'9 9.1
2014-Aug-25 13:33N 41°18' W 071°33'9 8.8
2014-Aug-25 12:33N 41°18' W 071°21'9 9.2
2014-Aug-25 11:33N 41°22' W 071°10'9 8.8
2014-Aug-25 10:33N 41°27' W 071°00'9 9.0
2014-Aug-25 09:33N 41°31' W 070°50'40 6.3
2014-Aug-25 03:10N 42°09' W 070°32'5 7.5
2014-Aug-25 02:31N 42°13' W 070°36'8 7.7
2014-Aug-25 01:33N 42°19' W 070°43'  

Dump ship's entire track history